sensor_id;sensor_type;location;lat;lon;timestamp;temperature;humidity
61591;DHT22;57639;52.410;-1.966;2023-01-20T00:00:25;15.60;42.80
61591;DHT22;57639;52.410;-1.966;2023-01-20T00:03:31;15.50;42.80
61591;DHT22;57639;52.410;-1.966;2023-01-20T00:06:37;15.40;43.10
61591;DHT22;57639;52.410;-1.966;2023-01-20T00:09:43;15.30;43.00
61591;DHT22;57639;52.410;-1.966;2023-01-20T00:12:52;15.30;43.20
61591;DHT22;57639;52.410;-1.966;2023-01-20T00:16:01;15.20;43.30
61591;DHT22;57639;52.410;-1.966;2023-01-20T00:19:08;15.10;43.30
61591;DHT22;57639;52.410;-1.966;2023-01-20T00:22:16;15.00;43.40
61591;DHT22;57639;52.410;-1.966;2023-01-20T00:25:22;15.00;43.40
61591;DHT22;57639;52.410;-1.966;2023-01-20T00:28:31;14.90;43.70
61591;DHT22;57639;52.410;-1.966;2023-01-20T00:31:38;14.80;43.70
61591;DHT22;57639;52.410;-1.966;2023-01-20T00:34:45;14.80;43.90
61591;DHT22;57639;52.410;-1.966;2023-01-20T00:37:51;14.70;43.90
61591;DHT22;57639;52.410;-1.966;2023-01-20T00:40:57;14.60;44.00
61591;DHT22;57639;52.410;-1.966;2023-01-20T00:44:06;14.60;44.00
61591;DHT22;57639;52.410;-1.966;2023-01-20T00:47:12;14.60;44.00
61591;DHT22;57639;52.410;-1.966;2023-01-20T00:50:18;14.60;44.10
61591;DHT22;57639;52.410;-1.966;2023-01-20T00:53:24;14.60;44.20
61591;DHT22;57639;52.410;-1.966;2023-01-20T00:56:30;14.50;44.20
61591;DHT22;57639;52.410;-1.966;2023-01-20T00:59:39;14.50;44.20
61591;DHT22;57639;52.410;-1.966;2023-01-20T01:02:45;14.50;44.30
61591;DHT22;57639;52.410;-1.966;2023-01-20T01:05:51;14.50;44.20
61591;DHT22;57639;52.410;-1.966;2023-01-20T01:08:57;14.40;44.20
61591;DHT22;57639;52.410;-1.966;2023-01-20T01:12:03;14.40;44.30
61591;DHT22;57639;52.410;-1.966;2023-01-20T01:15:12;14.30;44.40
61591;DHT22;57639;52.410;-1.966;2023-01-20T01:18:18;14.20;44.40
61591;DHT22;57639;52.410;-1.966;2023-01-20T01:21:24;14.20;44.50
61591;DHT22;57639;52.410;-1.966;2023-01-20T01:24:31;14.20;44.50
61591;DHT22;57639;52.410;-1.966;2023-01-20T01:27:37;14.10;44.50
61591;DHT22;57639;52.410;-1.966;2023-01-20T01:30:46;14.10;44.50
61591;DHT22;57639;52.410;-1.966;2023-01-20T01:33:52;14.20;44.50
61591;DHT22;57639;52.410;-1.966;2023-01-20T01:36:58;14.20;44.50
61591;DHT22;57639;52.410;-1.966;2023-01-20T01:40:05;14.20;44.50
61591;DHT22;57639;52.410;-1.966;2023-01-20T01:43:21;14.20;44.40
61591;DHT22;57639;52.410;-1.966;2023-01-20T01:46:31;14.10;44.30
61591;DHT22;57639;52.410;-1.966;2023-01-20T01:49:37;14.10;44.20
61591;DHT22;57639;52.410;-1.966;2023-01-20T01:52:44;14.00;44.30
61591;DHT22;57639;52.410;-1.966;2023-01-20T01:55:55;13.90;44.40
61591;DHT22;57639;52.410;-1.966;2023-01-20T01:59:02;13.90;44.50
61591;DHT22;57639;52.410;-1.966;2023-01-20T02:02:12;13.80;44.50
61591;DHT22;57639;52.410;-1.966;2023-01-20T02:05:19;13.80;44.60
61591;DHT22;57639;52.410;-1.966;2023-01-20T02:08:25;13.70;44.60
61591;DHT22;57639;52.410;-1.966;2023-01-20T02:11:35;13.70;44.60
61591;DHT22;57639;52.410;-1.966;2023-01-20T02:14:45;13.70;44.60
61591;DHT22;57639;52.410;-1.966;2023-01-20T02:18:17;13.70;44.70
61591;DHT22;57639;52.410;-1.966;2023-01-20T02:25:43;13.60;44.80
61591;DHT22;57639;52.410;-1.966;2023-01-20T02:29:30;13.60;44.70
61591;DHT22;57639;52.410;-1.966;2023-01-20T02:32:47;13.60;44.70
61591;DHT22;57639;52.410;-1.966;2023-01-20T02:35:58;13.60;44.70
61591;DHT22;57639;52.410;-1.966;2023-01-20T02:39:12;13.50;44.70
61591;DHT22;57639;52.410;-1.966;2023-01-20T02:42:23;13.50;44.70
61591;DHT22;57639;52.410;-1.966;2023-01-20T02:45:35;13.50;44.70
61591;DHT22;57639;52.410;-1.966;2023-01-20T02:48:50;13.50;44.80
61591;DHT22;57639;52.410;-1.966;2023-01-20T02:52:04;13.40;44.80
61591;DHT22;57639;52.410;-1.966;2023-01-20T02:55:16;13.40;44.90
61591;DHT22;57639;52.410;-1.966;2023-01-20T02:58:28;13.40;44.90
61591;DHT22;57639;52.410;-1.966;2023-01-20T03:01:39;13.40;45.00
61591;DHT22;57639;52.410;-1.966;2023-01-20T03:04:52;13.30;45.00
61591;DHT22;57639;52.410;-1.966;2023-01-20T03:08:03;13.30;44.90
61591;DHT22;57639;52.410;-1.966;2023-01-20T03:11:11;13.30;44.90
61591;DHT22;57639;52.410;-1.966;2023-01-20T03:14:18;13.30;44.90
61591;DHT22;57639;52.410;-1.966;2023-01-20T03:17:24;13.30;44.90
61591;DHT22;57639;52.410;-1.966;2023-01-20T03:20:33;13.30;44.80
61591;DHT22;57639;52.410;-1.966;2023-01-20T03:23:43;13.30;44.80
61591;DHT22;57639;52.410;-1.966;2023-01-20T03:26:50;13.30;44.80
61591;DHT22;57639;52.410;-1.966;2023-01-20T03:29:56;13.30;44.80
61591;DHT22;57639;52.410;-1.966;2023-01-20T03:33:03;13.20;44.80
61591;DHT22;57639;52.410;-1.966;2023-01-20T03:36:12;13.20;44.80
61591;DHT22;57639;52.410;-1.966;2023-01-20T03:39:20;13.20;44.90
61591;DHT22;57639;52.410;-1.966;2023-01-20T03:42:30;13.20;44.90
61591;DHT22;57639;52.410;-1.966;2023-01-20T03:45:45;13.20;44.90
61591;DHT22;57639;52.410;-1.966;2023-01-20T03:49:01;13.20;44.90
61591;DHT22;57639;52.410;-1.966;2023-01-20T03:52:21;13.10;44.90
61591;DHT22;57639;52.410;-1.966;2023-01-20T03:55:32;13.10;44.90
61591;DHT22;57639;52.410;-1.966;2023-01-20T03:58:39;13.10;44.90
61591;DHT22;57639;52.410;-1.966;2023-01-20T04:01:47;13.10;45.00
61591;DHT22;57639;52.410;-1.966;2023-01-20T04:04:55;13.10;45.10
61591;DHT22;57639;52.410;-1.966;2023-01-20T04:08:07;13.10;45.10
61591;DHT22;57639;52.410;-1.966;2023-01-20T04:11:12;13.10;45.20
61591;DHT22;57639;52.410;-1.966;2023-01-20T04:14:19;13.00;45.20
61591;DHT22;57639;52.410;-1.966;2023-01-20T04:17:26;13.00;45.20
61591;DHT22;57639;52.410;-1.966;2023-01-20T04:20:33;13.00;45.30
61591;DHT22;57639;52.410;-1.966;2023-01-20T04:23:44;13.00;45.40
61591;DHT22;57639;52.410;-1.966;2023-01-20T04:26:52;13.00;45.40
61591;DHT22;57639;52.410;-1.966;2023-01-20T04:29:58;13.00;45.40
61591;DHT22;57639;52.410;-1.966;2023-01-20T04:33:04;12.90;45.40
61591;DHT22;57639;52.410;-1.966;2023-01-20T04:36:10;12.90;45.30
61591;DHT22;57639;52.410;-1.966;2023-01-20T04:39:19;12.90;45.30
61591;DHT22;57639;52.410;-1.966;2023-01-20T04:42:26;12.90;45.30
61591;DHT22;57639;52.410;-1.966;2023-01-20T04:45:32;13.00;45.30
61591;DHT22;57639;52.410;-1.966;2023-01-20T04:48:39;12.90;45.20
61591;DHT22;57639;52.410;-1.966;2023-01-20T04:51:46;12.90;45.20
61591;DHT22;57639;52.410;-1.966;2023-01-20T04:54:54;12.90;45.20
61591;DHT22;57639;52.410;-1.966;2023-01-20T04:58:00;12.90;45.20
61591;DHT22;57639;52.410;-1.966;2023-01-20T05:01:07;12.90;45.20
61591;DHT22;57639;52.410;-1.966;2023-01-20T05:04:13;12.80;45.20
61591;DHT22;57639;52.410;-1.966;2023-01-20T05:07:19;12.80;45.20
61591;DHT22;57639;52.410;-1.966;2023-01-20T05:10:28;12.80;45.30
61591;DHT22;57639;52.410;-1.966;2023-01-20T05:13:34;12.80;45.30
61591;DHT22;57639;52.410;-1.966;2023-01-20T05:16:41;12.80;45.20
61591;DHT22;57639;52.410;-1.966;2023-01-20T05:19:48;12.80;45.20
61591;DHT22;57639;52.410;-1.966;2023-01-20T05:22:54;12.80;45.20
61591;DHT22;57639;52.410;-1.966;2023-01-20T05:26:06;12.80;45.20
61591;DHT22;57639;52.410;-1.966;2023-01-20T05:29:13;12.80;45.20
61591;DHT22;57639;52.410;-1.966;2023-01-20T05:32:19;12.80;45.20
61591;DHT22;57639;52.410;-1.966;2023-01-20T05:35:25;12.80;45.20
61591;DHT22;57639;52.410;-1.966;2023-01-20T05:38:31;12.80;45.20
61591;DHT22;57639;52.410;-1.966;2023-01-20T05:41:40;12.80;45.20
61591;DHT22;57639;52.410;-1.966;2023-01-20T05:44:48;12.80;45.20
61591;DHT22;57639;52.410;-1.966;2023-01-20T05:47:54;12.80;45.30
61591;DHT22;57639;52.410;-1.966;2023-01-20T05:51:00;12.70;45.30
61591;DHT22;57639;52.410;-1.966;2023-01-20T05:54:07;12.70;45.30
61591;DHT22;57639;52.410;-1.966;2023-01-20T05:57:16;12.80;45.30
61591;DHT22;57639;52.410;-1.966;2023-01-20T06:00:22;12.70;45.30
61591;DHT22;57639;52.410;-1.966;2023-01-20T06:03:28;12.70;45.40
61591;DHT22;57639;52.410;-1.966;2023-01-20T06:06:34;12.70;45.30
61591;DHT22;57639;52.410;-1.966;2023-01-20T06:09:40;12.70;45.40
61591;DHT22;57639;52.410;-1.966;2023-01-20T06:12:53;12.60;45.30
61591;DHT22;57639;52.410;-1.966;2023-01-20T06:16:00;12.60;45.40
61591;DHT22;57639;52.410;-1.966;2023-01-20T06:19:06;12.60;45.40
61591;DHT22;57639;52.410;-1.966;2023-01-20T06:22:13;12.60;45.40
61591;DHT22;57639;52.410;-1.966;2023-01-20T06:25:21;12.60;45.40
61591;DHT22;57639;52.410;-1.966;2023-01-20T06:28:30;12.60;45.40
61591;DHT22;57639;52.410;-1.966;2023-01-20T06:31:37;12.60;45.40
61591;DHT22;57639;52.410;-1.966;2023-01-20T06:34:43;12.60;45.40
61591;DHT22;57639;52.410;-1.966;2023-01-20T06:37:49;12.60;45.40
61591;DHT22;57639;52.410;-1.966;2023-01-20T06:40:58;12.60;45.40
61591;DHT22;57639;52.410;-1.966;2023-01-20T06:44:07;12.60;45.40
61591;DHT22;57639;52.410;-1.966;2023-01-20T06:47:11;12.60;45.40
61591;DHT22;57639;52.410;-1.966;2023-01-20T06:50:18;12.50;45.40
61591;DHT22;57639;52.410;-1.966;2023-01-20T06:53:24;12.50;45.50
61591;DHT22;57639;52.410;-1.966;2023-01-20T06:56:30;12.50;45.50
61591;DHT22;57639;52.410;-1.966;2023-01-20T06:59:39;12.50;45.50
61591;DHT22;57639;52.410;-1.966;2023-01-20T07:02:47;12.50;45.50
61591;DHT22;57639;52.410;-1.966;2023-01-20T07:05:56;12.50;45.50
61591;DHT22;57639;52.410;-1.966;2023-01-20T07:09:04;12.50;45.50
61591;DHT22;57639;52.410;-1.966;2023-01-20T07:12:10;12.50;45.60
61591;DHT22;57639;52.410;-1.966;2023-01-20T07:15:19;12.50;45.70
61591;DHT22;57639;52.410;-1.966;2023-01-20T07:18:25;12.60;45.70
61591;DHT22;57639;52.410;-1.966;2023-01-20T07:21:31;12.70;45.60
61591;DHT22;57639;52.410;-1.966;2023-01-20T07:24:37;12.90;45.40
61591;DHT22;57639;52.410;-1.966;2023-01-20T07:27:43;13.10;45.20
61591;DHT22;57639;52.410;-1.966;2023-01-20T07:30:53;13.40;44.80
61591;DHT22;57639;52.410;-1.966;2023-01-20T07:33:59;13.60;44.50
61591;DHT22;57639;52.410;-1.966;2023-01-20T07:37:05;13.90;44.20
61591;DHT22;57639;52.410;-1.966;2023-01-20T07:40:11;14.10;43.80
61591;DHT22;57639;52.410;-1.966;2023-01-20T07:43:17;14.30;43.50
61591;DHT22;57639;52.410;-1.966;2023-01-20T07:46:26;14.60;43.20
61591;DHT22;57639;52.410;-1.966;2023-01-20T07:49:32;14.70;42.90
61591;DHT22;57639;52.410;-1.966;2023-01-20T07:52:38;14.90;42.60
61591;DHT22;57639;52.410;-1.966;2023-01-20T07:55:45;15.00;42.40
61591;DHT22;57639;52.410;-1.966;2023-01-20T07:58:51;15.20;42.20
61591;DHT22;57639;52.410;-1.966;2023-01-20T08:02:00;15.30;42.10
61591;DHT22;57639;52.410;-1.966;2023-01-20T08:05:07;15.40;41.90
61591;DHT22;57639;52.410;-1.966;2023-01-20T08:08:13;15.60;41.70
61591;DHT22;57639;52.410;-1.966;2023-01-20T08:11:20;15.70;41.60
61591;DHT22;57639;52.410;-1.966;2023-01-20T08:14:26;15.70;41.50
61591;DHT22;57639;52.410;-1.966;2023-01-20T08:17:35;15.80;41.50
61591;DHT22;57639;52.410;-1.966;2023-01-20T08:20:41;15.70;41.60
61591;DHT22;57639;52.410;-1.966;2023-01-20T08:23:47;15.70;41.80
61591;DHT22;57639;52.410;-1.966;2023-01-20T08:26:53;15.70;41.90
61591;DHT22;57639;52.410;-1.966;2023-01-20T08:30:00;15.60;42.10
61591;DHT22;57639;52.410;-1.966;2023-01-20T08:33:09;15.60;42.10
61591;DHT22;57639;52.410;-1.966;2023-01-20T08:36:18;15.50;42.20
61591;DHT22;57639;52.410;-1.966;2023-01-20T08:39:24;15.50;42.30
61591;DHT22;57639;52.410;-1.966;2023-01-20T08:42:30;15.40;42.50
61591;DHT22;57639;52.410;-1.966;2023-01-20T08:45:36;15.30;42.70
61591;DHT22;57639;52.410;-1.966;2023-01-20T08:48:49;15.20;42.90
61591;DHT22;57639;52.410;-1.966;2023-01-20T08:51:55;15.10;43.00
61591;DHT22;57639;52.410;-1.966;2023-01-20T08:55:01;15.10;43.10
61591;DHT22;57639;52.410;-1.966;2023-01-20T08:58:07;15.00;43.60
61591;DHT22;57639;52.410;-1.966;2023-01-20T09:01:15;15.00;43.40
61591;DHT22;57639;52.410;-1.966;2023-01-20T09:04:24;15.00;43.60
61591;DHT22;57639;52.410;-1.966;2023-01-20T09:07:30;15.10;43.30
61591;DHT22;57639;52.410;-1.966;2023-01-20T09:10:36;15.50;42.60
61591;DHT22;57639;52.410;-1.966;2023-01-20T09:13:42;15.70;41.90
61591;DHT22;57639;52.410;-1.966;2023-01-20T09:16:49;15.60;41.70
61591;DHT22;57639;52.410;-1.966;2023-01-20T09:19:56;15.40;42.10
61591;DHT22;57639;52.410;-1.966;2023-01-20T09:23:02;15.20;42.50
61591;DHT22;57639;52.410;-1.966;2023-01-20T09:26:08;15.00;42.90
61591;DHT22;57639;52.410;-1.966;2023-01-20T09:29:15;14.90;43.00
61591;DHT22;57639;52.410;-1.966;2023-01-20T09:32:22;14.70;43.30
61591;DHT22;57639;52.410;-1.966;2023-01-20T09:35:30;14.60;43.40
61591;DHT22;57639;52.410;-1.966;2023-01-20T09:38:37;14.50;43.60
61591;DHT22;57639;52.410;-1.966;2023-01-20T09:42:02;14.40;43.70
61591;DHT22;57639;52.410;-1.966;2023-01-20T09:45:30;14.40;43.80
61591;DHT22;57639;52.410;-1.966;2023-01-20T09:48:45;14.30;43.90
61591;DHT22;57639;52.410;-1.966;2023-01-20T09:52:19;14.20;44.00
61591;DHT22;57639;52.410;-1.966;2023-01-20T09:55:47;14.10;44.20
61591;DHT22;57639;52.410;-1.966;2023-01-20T09:58:58;14.10;44.20
61591;DHT22;57639;52.410;-1.966;2023-01-20T10:02:13;14.00;44.30
61591;DHT22;57639;52.410;-1.966;2023-01-20T10:05:26;14.00;44.50
61591;DHT22;57639;52.410;-1.966;2023-01-20T10:08:42;13.90;44.50
61591;DHT22;57639;52.410;-1.966;2023-01-20T10:11:52;13.80;44.60
61591;DHT22;57639;52.410;-1.966;2023-01-20T10:15:05;13.80;44.60
61591;DHT22;57639;52.410;-1.966;2023-01-20T10:18:15;13.80;44.70
61591;DHT22;57639;52.410;-1.966;2023-01-20T10:21:26;13.70;44.70
61591;DHT22;57639;52.410;-1.966;2023-01-20T10:24:42;13.70;44.80
61591;DHT22;57639;52.410;-1.966;2023-01-20T10:27:54;13.70;44.80
61591;DHT22;57639;52.410;-1.966;2023-01-20T10:31:03;13.60;44.80
61591;DHT22;57639;52.410;-1.966;2023-01-20T10:34:12;13.60;44.80
61591;DHT22;57639;52.410;-1.966;2023-01-20T10:37:21;13.60;45.00
61591;DHT22;57639;52.410;-1.966;2023-01-20T10:40:35;13.60;45.00
61591;DHT22;57639;52.410;-1.966;2023-01-20T10:43:45;13.60;44.90
61591;DHT22;57639;52.410;-1.966;2023-01-20T10:47:09;13.70;44.90
61591;DHT22;57639;52.410;-1.966;2023-01-20T10:50:41;13.60;44.90
61591;DHT22;57639;52.410;-1.966;2023-01-20T10:53:55;13.70;44.80
61591;DHT22;57639;52.410;-1.966;2023-01-20T10:57:06;13.60;44.80
61591;DHT22;57639;52.410;-1.966;2023-01-20T11:00:19;13.60;44.90
61591;DHT22;57639;52.410;-1.966;2023-01-20T11:03:27;13.50;45.10
61591;DHT22;57639;52.410;-1.966;2023-01-20T11:06:37;13.50;45.20
61591;DHT22;57639;52.410;-1.966;2023-01-20T11:09:46;13.50;45.20
61591;DHT22;57639;52.410;-1.966;2023-01-20T11:12:57;13.50;45.20
61591;DHT22;57639;52.410;-1.966;2023-01-20T11:16:10;13.60;45.20
61591;DHT22;57639;52.410;-1.966;2023-01-20T11:19:17;13.60;45.20
61591;DHT22;57639;52.410;-1.966;2023-01-20T11:22:28;13.50;45.00
61591;DHT22;57639;52.410;-1.966;2023-01-20T11:25:34;13.50;45.00
61591;DHT22;57639;52.410;-1.966;2023-01-20T11:28:50;13.50;45.10
61591;DHT22;57639;52.410;-1.966;2023-01-20T11:31:57;13.50;45.00
61591;DHT22;57639;52.410;-1.966;2023-01-20T11:35:20;13.40;45.10
61591;DHT22;57639;52.410;-1.966;2023-01-20T11:38:28;13.30;45.20
61591;DHT22;57639;52.410;-1.966;2023-01-20T11:41:35;13.30;45.30
61591;DHT22;57639;52.410;-1.966;2023-01-20T11:44:46;13.20;45.30
61591;DHT22;57639;52.410;-1.966;2023-01-20T11:48:00;13.30;45.30
61591;DHT22;57639;52.410;-1.966;2023-01-20T11:51:18;13.20;45.30
61591;DHT22;57639;52.410;-1.966;2023-01-20T11:54:26;13.20;45.40
61591;DHT22;57639;52.410;-1.966;2023-01-20T11:57:32;13.20;45.40
61591;DHT22;57639;52.410;-1.966;2023-01-20T12:00:42;13.20;45.50
61591;DHT22;57639;52.410;-1.966;2023-01-20T12:04:22;13.10;45.40
61591;DHT22;57639;52.410;-1.966;2023-01-20T12:07:36;13.20;45.40
61591;DHT22;57639;52.410;-1.966;2023-01-20T12:10:42;13.10;45.50
61591;DHT22;57639;52.410;-1.966;2023-01-20T12:14:12;13.10;45.60
61591;DHT22;57639;52.410;-1.966;2023-01-20T12:17:37;13.30;45.80
61591;DHT22;57639;52.410;-1.966;2023-01-20T12:20:47;13.40;45.80
61591;DHT22;57639;52.410;-1.966;2023-01-20T12:23:55;13.50;45.90
61591;DHT22;57639;52.410;-1.966;2023-01-20T12:27:01;13.70;45.90
61591;DHT22;57639;52.410;-1.966;2023-01-20T12:30:28;13.90;45.90
61591;DHT22;57639;52.410;-1.966;2023-01-20T12:33:41;14.10;45.60
61591;DHT22;57639;52.410;-1.966;2023-01-20T12:37:03;14.50;45.30
61591;DHT22;57639;52.410;-1.966;2023-01-20T12:40:25;14.70;45.10
61591;DHT22;57639;52.410;-1.966;2023-01-20T12:43:49;15.00;44.60
61591;DHT22;57639;52.410;-1.966;2023-01-20T12:47:04;15.20;44.40
61591;DHT22;57639;52.410;-1.966;2023-01-20T12:50:26;15.30;44.10
61591;DHT22;57639;52.410;-1.966;2023-01-20T12:53:47;15.50;43.70
61591;DHT22;57639;52.410;-1.966;2023-01-20T12:57:02;15.70;43.50
61591;DHT22;57639;52.410;-1.966;2023-01-20T13:04:04;16.00;43.00
61591;DHT22;57639;52.410;-1.966;2023-01-20T13:07:32;16.10;42.80
61591;DHT22;57639;52.410;-1.966;2023-01-20T13:10:50;16.30;42.50
61591;DHT22;57639;52.410;-1.966;2023-01-20T13:14:07;16.30;42.40
61591;DHT22;57639;52.410;-1.966;2023-01-20T13:17:20;16.40;42.20
61591;DHT22;57639;52.410;-1.966;2023-01-20T13:20:30;16.50;42.10
61591;DHT22;57639;52.410;-1.966;2023-01-20T13:23:39;16.50;42.20
61591;DHT22;57639;52.410;-1.966;2023-01-20T13:26:46;16.50;42.10
61591;DHT22;57639;52.410;-1.966;2023-01-20T13:29:54;16.40;42.10
61591;DHT22;57639;52.410;-1.966;2023-01-20T13:33:02;16.40;42.10
61591;DHT22;57639;52.410;-1.966;2023-01-20T13:36:14;16.40;42.20
61591;DHT22;57639;52.410;-1.966;2023-01-20T13:39:42;16.30;42.30
61591;DHT22;57639;52.410;-1.966;2023-01-20T13:42:49;16.30;42.40
61591;DHT22;57639;52.410;-1.966;2023-01-20T13:49:47;16.10;42.60
61591;DHT22;57639;52.410;-1.966;2023-01-20T13:56:36;16.10;42.90
61591;DHT22;57639;52.410;-1.966;2023-01-20T13:59:42;16.10;42.80
61591;DHT22;57639;52.410;-1.966;2023-01-20T14:02:48;16.10;42.80
61591;DHT22;57639;52.410;-1.966;2023-01-20T14:05:57;16.30;42.90
61591;DHT22;57639;52.410;-1.966;2023-01-20T14:09:10;16.40;42.80
61591;DHT22;57639;52.410;-1.966;2023-01-20T14:12:24;16.50;42.70
61591;DHT22;57639;52.410;-1.966;2023-01-20T14:15:34;16.60;42.60
61591;DHT22;57639;52.410;-1.966;2023-01-20T14:18:41;16.70;42.50
61591;DHT22;57639;52.410;-1.966;2023-01-20T14:21:51;16.80;42.40
61591;DHT22;57639;52.410;-1.966;2023-01-20T14:24:58;16.80;42.20
61591;DHT22;57639;52.410;-1.966;2023-01-20T14:28:18;17.00;42.20
61591;DHT22;57639;52.410;-1.966;2023-01-20T14:31:30;17.10;42.10
61591;DHT22;57639;52.410;-1.966;2023-01-20T14:34:38;17.00;42.10
61591;DHT22;57639;52.410;-1.966;2023-01-20T14:37:48;17.10;42.20
61591;DHT22;57639;52.410;-1.966;2023-01-20T14:40:55;17.10;42.30
61591;DHT22;57639;52.410;-1.966;2023-01-20T14:44:15;17.00;42.40
61591;DHT22;57639;52.410;-1.966;2023-01-20T14:47:24;17.00;42.30
61591;DHT22;57639;52.410;-1.966;2023-01-20T14:50:30;16.90;42.10
61591;DHT22;57639;52.410;-1.966;2023-01-20T14:53:37;16.80;42.30
61591;DHT22;57639;52.410;-1.966;2023-01-20T14:56:46;16.80;42.60
61591;DHT22;57639;52.410;-1.966;2023-01-20T15:00:12;16.70;42.60
61591;DHT22;57639;52.410;-1.966;2023-01-20T15:03:21;16.70;42.60
61591;DHT22;57639;52.410;-1.966;2023-01-20T15:06:28;16.60;42.50
61591;DHT22;57639;52.410;-1.966;2023-01-20T15:09:33;16.60;42.80
61591;DHT22;57639;52.410;-1.966;2023-01-20T15:12:51;16.60;42.70
61591;DHT22;57639;52.410;-1.966;2023-01-20T15:16:15;16.60;42.70
61591;DHT22;57639;52.410;-1.966;2023-01-20T15:19:30;16.50;43.00
61591;DHT22;57639;52.410;-1.966;2023-01-20T15:22:41;16.30;43.10
61591;DHT22;57639;52.410;-1.966;2023-01-20T15:25:48;16.30;43.30
61591;DHT22;57639;52.410;-1.966;2023-01-20T15:28:56;16.20;43.40
61591;DHT22;57639;52.410;-1.966;2023-01-20T15:32:09;16.10;43.40
61591;DHT22;57639;52.410;-1.966;2023-01-20T15:35:17;16.10;43.40
61591;DHT22;57639;52.410;-1.966;2023-01-20T15:38:31;16.00;43.60
61591;DHT22;57639;52.410;-1.966;2023-01-20T15:41:37;16.00;43.70
61591;DHT22;57639;52.410;-1.966;2023-01-20T15:44:43;15.80;43.70
61591;DHT22;57639;52.410;-1.966;2023-01-20T15:47:52;15.80;44.00
61591;DHT22;57639;52.410;-1.966;2023-01-20T15:50:59;15.70;44.20
61591;DHT22;57639;52.410;-1.966;2023-01-20T15:54:05;15.60;44.10
61591;DHT22;57639;52.410;-1.966;2023-01-20T15:57:12;15.60;43.90
61591;DHT22;57639;52.410;-1.966;2023-01-20T16:00:19;15.50;44.10
61591;DHT22;57639;52.410;-1.966;2023-01-20T16:03:28;15.50;44.10
61591;DHT22;57639;52.410;-1.966;2023-01-20T16:06:37;15.40;44.10
61591;DHT22;57639;52.410;-1.966;2023-01-20T16:09:41;15.40;44.20
61591;DHT22;57639;52.410;-1.966;2023-01-20T16:12:48;15.40;44.40
61591;DHT22;57639;52.410;-1.966;2023-01-20T16:15:54;15.30;44.20
61591;DHT22;57639;52.410;-1.966;2023-01-20T16:19:03;15.30;44.20
61591;DHT22;57639;52.410;-1.966;2023-01-20T16:22:09;15.30;44.90
61591;DHT22;57639;52.410;-1.966;2023-01-20T16:25:16;15.30;44.90
61591;DHT22;57639;52.410;-1.966;2023-01-20T16:28:22;15.40;44.90
61591;DHT22;57639;52.410;-1.966;2023-01-20T16:31:28;15.50;45.00
61591;DHT22;57639;52.410;-1.966;2023-01-20T16:34:38;15.70;44.80
61591;DHT22;57639;52.410;-1.966;2023-01-20T16:37:45;15.80;44.50
61591;DHT22;57639;52.410;-1.966;2023-01-20T16:40:56;16.10;44.20
61591;DHT22;57639;52.410;-1.966;2023-01-20T16:44:08;16.30;44.00
61591;DHT22;57639;52.410;-1.966;2023-01-20T16:47:14;16.50;43.70
61591;DHT22;57639;52.410;-1.966;2023-01-20T16:50:23;16.60;43.40
61591;DHT22;57639;52.410;-1.966;2023-01-20T16:53:30;16.80;43.10
61591;DHT22;57639;52.410;-1.966;2023-01-20T16:56:36;16.90;43.00
61591;DHT22;57639;52.410;-1.966;2023-01-20T16:59:44;17.00;42.90
61591;DHT22;57639;52.410;-1.966;2023-01-20T17:02:51;17.00;42.80
61591;DHT22;57639;52.410;-1.966;2023-01-20T17:06:08;17.00;42.80
61591;DHT22;57639;52.410;-1.966;2023-01-20T17:09:14;17.00;42.80
61591;DHT22;57639;52.410;-1.966;2023-01-20T17:12:20;16.90;42.80
61591;DHT22;57639;52.410;-1.966;2023-01-20T17:15:24;16.80;42.90
61591;DHT22;57639;52.410;-1.966;2023-01-20T17:18:31;16.80;43.00
61591;DHT22;57639;52.410;-1.966;2023-01-20T17:21:38;16.70;43.10
61591;DHT22;57639;52.410;-1.966;2023-01-20T17:24:44;16.60;43.20
61591;DHT22;57639;52.410;-1.966;2023-01-20T17:27:50;16.60;43.20
61591;DHT22;57639;52.410;-1.966;2023-01-20T17:31:00;16.60;43.30
61591;DHT22;57639;52.410;-1.966;2023-01-20T17:34:08;16.40;43.30
61591;DHT22;57639;52.410;-1.966;2023-01-20T17:37:16;16.40;43.40
61591;DHT22;57639;52.410;-1.966;2023-01-20T17:40:23;16.30;43.40
61591;DHT22;57639;52.410;-1.966;2023-01-20T17:43:32;16.30;43.50
61591;DHT22;57639;52.410;-1.966;2023-01-20T17:46:39;16.20;43.40
61591;DHT22;57639;52.410;-1.966;2023-01-20T17:49:45;16.10;43.90
61591;DHT22;57639;52.410;-1.966;2023-01-20T17:52:53;16.00;44.40
61591;DHT22;57639;52.410;-1.966;2023-01-20T17:55:59;16.00;44.40
61591;DHT22;57639;52.410;-1.966;2023-01-20T17:59:06;15.90;44.70
61591;DHT22;57639;52.410;-1.966;2023-01-20T18:02:12;15.90;44.40
61591;DHT22;57639;52.410;-1.966;2023-01-20T18:05:20;15.90;44.60
61591;DHT22;57639;52.410;-1.966;2023-01-20T18:08:29;15.90;44.60
61591;DHT22;57639;52.410;-1.966;2023-01-20T18:11:35;15.80;44.70
61591;DHT22;57639;52.410;-1.966;2023-01-20T18:14:42;15.80;44.70
61591;DHT22;57639;52.410;-1.966;2023-01-20T18:17:48;15.80;45.10
61591;DHT22;57639;52.410;-1.966;2023-01-20T18:20:54;15.90;44.80
61591;DHT22;57639;52.410;-1.966;2023-01-20T18:24:05;16.10;45.00
61591;DHT22;57639;52.410;-1.966;2023-01-20T18:27:11;16.30;45.20
61591;DHT22;57639;52.410;-1.966;2023-01-20T18:30:18;16.40;44.90
61591;DHT22;57639;52.410;-1.966;2023-01-20T18:33:24;16.60;44.70
61591;DHT22;57639;52.410;-1.966;2023-01-20T18:36:32;16.80;44.40
61591;DHT22;57639;52.410;-1.966;2023-01-20T18:39:41;17.00;44.10
61591;DHT22;57639;52.410;-1.966;2023-01-20T18:42:47;17.20;44.00
61591;DHT22;57639;52.410;-1.966;2023-01-20T18:45:53;17.30;43.60
61591;DHT22;57639;52.410;-1.966;2023-01-20T18:49:00;17.40;43.50
61591;DHT22;57639;52.410;-1.966;2023-01-20T18:52:07;17.50;43.50
61591;DHT22;57639;52.410;-1.966;2023-01-20T18:55:15;17.60;43.60
61591;DHT22;57639;52.410;-1.966;2023-01-20T18:58:21;17.60;43.40
61591;DHT22;57639;52.410;-1.966;2023-01-20T19:01:31;17.80;43.50
61591;DHT22;57639;52.410;-1.966;2023-01-20T19:04:38;17.80;43.50
61591;DHT22;57639;52.410;-1.966;2023-01-20T19:07:47;17.80;43.80
61591;DHT22;57639;52.410;-1.966;2023-01-20T19:10:58;17.90;43.70
61591;DHT22;57639;52.410;-1.966;2023-01-20T19:14:05;18.00;44.00
61591;DHT22;57639;52.410;-1.966;2023-01-20T19:17:12;18.00;43.70
61591;DHT22;57639;52.410;-1.966;2023-01-20T19:20:18;18.10;43.70
61591;DHT22;57639;52.410;-1.966;2023-01-20T19:23:25;18.10;43.80
61591;DHT22;57639;52.410;-1.966;2023-01-20T19:26:34;18.10;44.00
61591;DHT22;57639;52.410;-1.966;2023-01-20T19:29:40;18.10;44.00
61591;DHT22;57639;52.410;-1.966;2023-01-20T19:32:46;18.10;44.10
61591;DHT22;57639;52.410;-1.966;2023-01-20T19:35:52;18.10;44.40
61591;DHT22;57639;52.410;-1.966;2023-01-20T19:39:02;18.10;44.90
61591;DHT22;57639;52.410;-1.966;2023-01-20T19:42:11;18.10;45.10
61591;DHT22;57639;52.410;-1.966;2023-01-20T19:45:17;18.20;45.20
61591;DHT22;57639;52.410;-1.966;2023-01-20T19:48:23;18.20;45.20
61591;DHT22;57639;52.410;-1.966;2023-01-20T19:51:30;18.30;45.20